createdAt,value
2018-06-12T00:05:03.030Z,16.78
2018-06-12T00:11:08.755Z,16.80
2018-06-12T00:17:14.579Z,16.69
2018-06-12T00:23:20.439Z,16.59
2018-06-12T00:29:26.221Z,16.52
2018-06-12T00:35:31.961Z,16.63
2018-06-12T00:41:37.928Z,16.41
2018-06-12T00:47:43.601Z,16.29
2018-06-12T00:53:49.854Z,16.32
2018-06-12T00:59:56.319Z,16.36
2018-06-12T01:06:02.052Z,16.09
2018-06-12T01:12:07.921Z,15.90
2018-06-12T01:18:13.544Z,15.61
2018-06-12T01:24:19.209Z,15.48
2018-06-12T01:30:25.446Z,15.58
2018-06-12T01:36:31.128Z,15.58
2018-06-12T01:42:36.776Z,15.61
2018-06-12T01:48:42.413Z,15.41
2018-06-12T01:54:48.048Z,15.25
2018-06-12T02:00:54.249Z,15.07
2018-06-12T02:06:59.911Z,15.11
2018-06-12T02:19:44.731Z,15.14
2018-06-12T02:25:50.461Z,15.23
2018-06-12T02:31:56.261Z,15.18
2018-06-12T02:38:01.944Z,15.25
2018-06-12T02:44:07.600Z,15.08
2018-06-12T02:50:13.233Z,15.08
2018-06-12T02:56:18.935Z,14.96
2018-06-12T03:02:25.681Z,14.70
2018-06-12T03:08:31.516Z,14.75
2018-06-12T03:14:37.320Z,14.79
2018-06-12T03:20:46.747Z,14.48
2018-06-12T03:26:52.789Z,14.58
2018-06-12T03:32:58.518Z,14.59
2018-06-12T03:39:06.397Z,14.54
2018-06-12T03:45:12.003Z,14.43
2018-06-12T03:51:17.779Z,14.34
2018-06-12T03:57:24.482Z,14.39
2018-06-12T04:03:30.272Z,14.35
2018-06-12T04:09:35.949Z,14.34
2018-06-12T04:15:41.783Z,14.46
2018-06-12T04:21:47.969Z,14.33
2018-06-12T04:27:53.933Z,14.46
2018-06-12T04:33:59.683Z,14.69
2018-06-12T04:40:05.446Z,14.61
2018-06-12T04:46:11.097Z,14.68
2018-06-12T04:52:16.855Z,14.86
2018-06-12T04:58:23.304Z,14.77
2018-06-12T05:04:28.947Z,15.02
2018-06-12T05:10:34.593Z,15.10
2018-06-12T05:16:40.311Z,15.11
2018-06-12T05:22:45.945Z,15.07
2018-06-12T05:28:53.089Z,15.32
2018-06-12T05:34:58.726Z,15.13
2018-06-12T05:41:04.392Z,15.14
2018-06-12T05:47:10.028Z,15.36
2018-06-12T05:53:15.778Z,15.74
2018-06-12T05:59:21.843Z,16.43
2018-06-12T06:05:27.499Z,17.01
2018-06-12T06:11:33.228Z,16.66
2018-06-12T06:17:39.093Z,16.81
2018-06-12T06:23:44.891Z,17.11
2018-06-12T06:29:50.650Z,17.84
2018-06-12T06:35:56.685Z,17.25
2018-06-12T06:42:02.415Z,17.05
2018-06-12T06:48:08.196Z,17.44
2018-06-12T06:54:14.005Z,17.44
2018-06-12T07:00:19.779Z,18.03
2018-06-12T07:06:26.044Z,18.60
2018-06-12T07:12:31.653Z,18.13
2018-06-12T07:18:37.364Z,17.34
2018-06-12T07:24:42.991Z,17.12
2018-06-12T07:30:48.645Z,17.02
2018-06-12T07:36:54.768Z,17.12
2018-06-12T07:43:00.372Z,17.38
2018-06-12T07:49:06.159Z,17.92
2018-06-12T07:55:11.866Z,18.01
2018-06-12T08:01:17.591Z,18.54
2018-06-12T08:07:23.844Z,18.73
2018-06-12T08:13:29.613Z,19.00
2018-06-12T08:19:35.309Z,18.89
2018-06-12T08:25:40.984Z,19.31
2018-06-12T08:31:46.660Z,19.24
2018-06-12T08:37:52.822Z,19.01
2018-06-12T08:43:58.708Z,19.15
2018-06-12T08:50:04.485Z,18.88
2018-06-12T08:56:10.117Z,19.30
2018-06-12T09:02:15.770Z,19.52
2018-06-12T09:08:21.400Z,19.88
2018-06-12T09:14:27.416Z,19.53
2018-06-12T09:20:33.009Z,19.32
2018-06-12T09:26:38.629Z,19.28
2018-06-12T09:32:44.259Z,19.36
2018-06-12T09:38:50.015Z,19.43
2018-06-12T09:44:55.835Z,20.14
2018-06-12T09:51:01.451Z,21.39
2018-06-12T09:57:07.332Z,22.36
2018-06-12T10:03:12.940Z,22.02
2018-06-12T10:09:18.898Z,21.60
2018-06-12T10:15:24.725Z,21.72
2018-06-12T10:21:30.382Z,23.20
2018-06-12T10:27:36.111Z,23.16
2018-06-12T10:33:41.870Z,23.97
2018-06-12T10:39:47.578Z,23.22
2018-06-12T10:45:54.412Z,23.26
2018-06-12T10:52:00.035Z,25.26
2018-06-12T10:58:05.660Z,24.94
2018-06-12T11:04:11.254Z,24.79
2018-06-12T11:10:17.025Z,26.02
2018-06-12T11:16:23.973Z,24.53
2018-06-12T11:22:29.668Z,23.53
2018-06-12T11:28:35.320Z,22.36
2018-06-12T11:34:41.265Z,22.59
2018-06-12T11:40:46.856Z,22.53
2018-06-12T11:46:53.108Z,22.56
2018-06-12T11:52:58.811Z,22.36
2018-06-12T11:59:04.630Z,21.83
2018-06-12T12:05:10.456Z,21.64
2018-06-12T12:11:16.235Z,21.65
2018-06-12T12:17:22.467Z,21.66
2018-06-12T12:23:28.389Z,22.43
2018-06-12T12:29:33.992Z,23.05
2018-06-12T12:35:39.604Z,23.10
2018-06-12T12:41:45.289Z,22.22
2018-06-12T12:47:51.129Z,21.40
2018-06-12T12:53:56.914Z,21.35
2018-06-12T13:00:02.536Z,21.34
2018-06-12T13:06:08.319Z,21.31
2018-06-12T13:12:13.969Z,23.41
2018-06-12T13:18:19.691Z,23.16
2018-06-12T13:24:25.860Z,22.42
2018-06-12T13:30:31.596Z,22.93
2018-06-12T13:36:37.377Z,23.99
2018-06-12T13:42:43.004Z,23.89
2018-06-12T13:48:48.689Z,23.35
2018-06-12T13:54:54.977Z,22.99
2018-06-12T14:01:01.466Z,22.36
2018-06-12T14:07:07.089Z,22.31
2018-06-12T14:13:12.715Z,21.93
2018-06-12T14:19:18.353Z,21.93
2018-06-12T14:25:24.989Z,21.39
2018-06-12T14:31:31.127Z,21.13
2018-06-12T14:37:36.878Z,21.00
2018-06-12T14:43:42.625Z,21.71
2018-06-12T14:49:48.589Z,22.51
2018-06-12T14:55:55.667Z,22.45
2018-06-12T15:02:01.349Z,22.15
2018-06-12T15:08:07.051Z,21.68
2018-06-12T15:14:12.858Z,21.60
2018-06-12T15:20:18.568Z,21.09
2018-06-12T15:26:25.319Z,20.42
2018-06-12T15:32:30.948Z,20.43
2018-06-12T15:38:36.840Z,20.33
2018-06-12T15:44:42.569Z,20.56
2018-06-12T15:50:48.329Z,20.90
2018-06-12T15:56:54.457Z,20.98
2018-06-12T16:03:00.175Z,20.99
2018-06-12T16:09:12.494Z,21.16
2018-06-12T16:15:18.129Z,21.20
2018-06-12T16:21:24.700Z,20.75
2018-06-12T16:27:30.452Z,20.10
2018-06-12T16:33:36.147Z,20.19
2018-06-12T16:39:41.765Z,20.32
2018-06-12T16:45:47.341Z,20.53
2018-06-12T16:51:53.860Z,20.48
2018-06-12T16:57:59.522Z,20.04
2018-06-12T17:04:05.214Z,20.10
2018-06-12T17:10:11.034Z,20.27
2018-06-12T17:16:16.698Z,20.10
2018-06-12T17:22:23.013Z,19.86
2018-06-12T17:28:28.790Z,19.57
2018-06-12T17:34:34.810Z,19.38
2018-06-12T17:40:40.463Z,18.91
2018-06-12T17:46:46.162Z,18.83
2018-06-12T17:52:52.393Z,18.68
2018-06-12T17:58:58.096Z,18.51
2018-06-12T18:05:03.800Z,18.73
2018-06-12T18:11:10.041Z,18.62
2018-06-12T18:17:15.817Z,18.60
2018-06-12T18:23:21.846Z,18.42
2018-06-12T18:29:27.498Z,18.34
2018-06-12T18:35:33.276Z,18.27
2018-06-12T18:41:39.005Z,18.29
2018-06-12T18:47:45.065Z,18.05
2018-06-12T18:53:50.732Z,18.05
2018-06-12T18:59:56.577Z,18.00
2018-06-12T19:06:02.396Z,17.84
2018-06-12T19:12:08.090Z,17.94
2018-06-12T19:18:13.916Z,17.78
2018-06-12T19:24:20.141Z,17.55
2018-06-12T19:30:26.102Z,17.50
2018-06-12T19:36:31.723Z,17.43
2018-06-12T19:42:37.441Z,17.32
2018-06-12T19:48:43.077Z,17.24
2018-06-12T19:54:49.194Z,17.33
2018-06-12T20:00:55.797Z,17.11
2018-06-12T20:07:01.458Z,17.09
2018-06-12T20:13:07.296Z,16.91
2018-06-12T20:19:13.022Z,16.64
2018-06-12T20:25:19.872Z,16.71
2018-06-12T20:31:26.372Z,16.55
2018-06-12T20:37:32.093Z,16.73
2018-06-12T20:43:37.845Z,16.77
2018-06-12T20:49:43.640Z,16.58
2018-06-12T20:55:49.427Z,16.68
2018-06-12T21:01:56.335Z,16.47
2018-06-12T21:08:02.114Z,16.49
2018-06-12T21:14:07.803Z,16.47
2018-06-12T21:20:13.563Z,16.40
2018-06-12T21:26:20.089Z,16.41
2018-06-12T21:32:25.785Z,16.09
2018-06-12T21:38:31.452Z,16.36
2018-06-12T21:44:37.233Z,16.06
2018-06-12T21:50:42.872Z,16.01
2018-06-12T21:56:48.551Z,15.71
2018-06-12T22:02:54.680Z,15.78
2018-06-12T22:09:00.345Z,15.77
2018-06-12T22:15:06.038Z,15.69
2018-06-12T22:21:12.128Z,15.76
2018-06-12T22:27:17.802Z,15.78
2018-06-12T22:33:23.736Z,15.68
2018-06-12T22:39:29.408Z,15.89
2018-06-12T22:45:35.103Z,15.73
2018-06-12T22:51:40.776Z,15.77
2018-06-12T22:57:46.526Z,15.57
2018-06-12T23:03:54.215Z,15.60
2018-06-12T23:09:59.916Z,15.41
2018-06-12T23:16:05.616Z,15.43
2018-06-12T23:22:11.548Z,15.50
2018-06-12T23:28:17.236Z,15.56
2018-06-12T23:34:25.210Z,15.35
2018-06-12T23:40:31.015Z,15.39
2018-06-12T23:46:36.840Z,15.44
2018-06-12T23:52:42.866Z,15.37
2018-06-12T23:58:48.808Z,15.29
